sensor_id;sensor_type;location;lat;lon;timestamp;temperature;humidity
20416;DHT22;10367;52.202;5.996;2023-04-08T00:02:25;4.00;99.90
20416;DHT22;10367;52.202;5.996;2023-04-08T00:04:54;3.90;99.90
20416;DHT22;10367;52.202;5.996;2023-04-08T00:07:24;3.90;99.90
20416;DHT22;10367;52.202;5.996;2023-04-08T00:09:53;3.90;99.90
20416;DHT22;10367;52.202;5.996;2023-04-08T00:12:21;3.80;99.90
20416;DHT22;10367;52.202;5.996;2023-04-08T00:14:50;3.80;99.90
20416;DHT22;10367;52.202;5.996;2023-04-08T00:17:19;3.70;99.90
20416;DHT22;10367;52.202;5.996;2023-04-08T00:19:48;3.70;99.90
20416;DHT22;10367;52.202;5.996;2023-04-08T00:22:17;3.70;99.90
20416;DHT22;10367;52.202;5.996;2023-04-08T00:24:47;3.60;99.90
20416;DHT22;10367;52.202;5.996;2023-04-08T00:27:18;3.60;99.90
20416;DHT22;10367;52.202;5.996;2023-04-08T00:29:47;3.60;99.90
20416;DHT22;10367;52.202;5.996;2023-04-08T00:32:16;3.60;99.90
20416;DHT22;10367;52.202;5.996;2023-04-08T00:34:44;3.60;99.90
20416;DHT22;10367;52.202;5.996;2023-04-08T00:37:15;3.60;99.90
20416;DHT22;10367;52.202;5.996;2023-04-08T00:39:44;3.70;99.90
20416;DHT22;10367;52.202;5.996;2023-04-08T00:42:14;3.60;99.90
20416;DHT22;10367;52.202;5.996;2023-04-08T00:44:43;3.60;99.90
20416;DHT22;10367;52.202;5.996;2023-04-08T00:47:12;3.50;99.90
20416;DHT22;10367;52.202;5.996;2023-04-08T00:49:42;3.50;99.90
20416;DHT22;10367;52.202;5.996;2023-04-08T00:52:11;3.60;99.90
20416;DHT22;10367;52.202;5.996;2023-04-08T00:54:40;3.50;99.90
20416;DHT22;10367;52.202;5.996;2023-04-08T00:57:09;3.50;99.90
20416;DHT22;10367;52.202;5.996;2023-04-08T00:59:40;3.50;99.90
20416;DHT22;10367;52.202;5.996;2023-04-08T01:02:14;3.40;99.90
20416;DHT22;10367;52.202;5.996;2023-04-08T01:04:52;3.40;99.90
20416;DHT22;10367;52.202;5.996;2023-04-08T01:07:31;3.40;99.90
20416;DHT22;10367;52.202;5.996;2023-04-08T01:10:04;3.40;99.90
20416;DHT22;10367;52.202;5.996;2023-04-08T01:12:40;3.40;99.90
20416;DHT22;10367;52.202;5.996;2023-04-08T01:15:12;3.30;99.90
20416;DHT22;10367;52.202;5.996;2023-04-08T01:17:42;3.30;99.90
20416;DHT22;10367;52.202;5.996;2023-04-08T01:23:03;3.40;99.90
20416;DHT22;10367;52.202;5.996;2023-04-08T01:25:38;3.30;99.90
20416;DHT22;10367;52.202;5.996;2023-04-08T01:28:11;3.20;99.90
20416;DHT22;10367;52.202;5.996;2023-04-08T01:30:41;3.20;99.90
20416;DHT22;10367;52.202;5.996;2023-04-08T01:33:15;3.10;99.90
20416;DHT22;10367;52.202;5.996;2023-04-08T01:35:53;3.00;99.90
20416;DHT22;10367;52.202;5.996;2023-04-08T01:38:23;3.10;99.90
20416;DHT22;10367;52.202;5.996;2023-04-08T01:40:56;3.20;99.90
20416;DHT22;10367;52.202;5.996;2023-04-08T01:43:27;3.10;99.90
20416;DHT22;10367;52.202;5.996;2023-04-08T01:45:59;3.10;99.90
20416;DHT22;10367;52.202;5.996;2023-04-08T01:48:29;3.00;99.90
20416;DHT22;10367;52.202;5.996;2023-04-08T01:50:59;3.00;99.90
20416;DHT22;10367;52.202;5.996;2023-04-08T01:53:30;3.00;99.90
20416;DHT22;10367;52.202;5.996;2023-04-08T01:56:05;2.90;99.90
20416;DHT22;10367;52.202;5.996;2023-04-08T01:58:41;3.00;99.90
20416;DHT22;10367;52.202;5.996;2023-04-08T02:01:12;3.00;99.90
20416;DHT22;10367;52.202;5.996;2023-04-08T02:03:43;3.00;99.90
20416;DHT22;10367;52.202;5.996;2023-04-08T02:06:13;3.00;99.90
20416;DHT22;10367;52.202;5.996;2023-04-08T02:08:42;2.90;99.90
20416;DHT22;10367;52.202;5.996;2023-04-08T02:11:15;2.80;99.90
20416;DHT22;10367;52.202;5.996;2023-04-08T02:13:47;2.70;99.90
20416;DHT22;10367;52.202;5.996;2023-04-08T02:16:21;2.70;99.90
20416;DHT22;10367;52.202;5.996;2023-04-08T02:18:55;2.70;99.90
20416;DHT22;10367;52.202;5.996;2023-04-08T02:21:30;2.80;99.90
20416;DHT22;10367;52.202;5.996;2023-04-08T02:24:04;2.70;99.90
20416;DHT22;10367;52.202;5.996;2023-04-08T02:26:36;2.80;99.90
20416;DHT22;10367;52.202;5.996;2023-04-08T02:29:11;2.70;99.90
20416;DHT22;10367;52.202;5.996;2023-04-08T02:31:42;2.70;99.90
20416;DHT22;10367;52.202;5.996;2023-04-08T02:34:11;2.70;99.90
20416;DHT22;10367;52.202;5.996;2023-04-08T02:36:43;2.70;99.90
20416;DHT22;10367;52.202;5.996;2023-04-08T02:39:13;2.60;99.90
20416;DHT22;10367;52.202;5.996;2023-04-08T02:41:42;2.60;99.90
20416;DHT22;10367;52.202;5.996;2023-04-08T02:44:17;2.60;99.90
20416;DHT22;10367;52.202;5.996;2023-04-08T02:46:45;2.70;99.90
20416;DHT22;10367;52.202;5.996;2023-04-08T02:49:14;2.70;99.90
20416;DHT22;10367;52.202;5.996;2023-04-08T02:51:45;2.70;99.90
20416;DHT22;10367;52.202;5.996;2023-04-08T02:54:14;2.60;99.90
20416;DHT22;10367;52.202;5.996;2023-04-08T02:56:43;2.50;99.90
20416;DHT22;10367;52.202;5.996;2023-04-08T02:59:12;2.50;99.90
20416;DHT22;10367;52.202;5.996;2023-04-08T03:01:42;2.50;99.90
20416;DHT22;10367;52.202;5.996;2023-04-08T03:04:11;2.50;99.90
20416;DHT22;10367;52.202;5.996;2023-04-08T03:06:39;2.50;99.90
20416;DHT22;10367;52.202;5.996;2023-04-08T03:09:08;2.50;99.90
20416;DHT22;10367;52.202;5.996;2023-04-08T03:11:37;2.40;99.90
20416;DHT22;10367;52.202;5.996;2023-04-08T03:14:06;2.40;99.90
20416;DHT22;10367;52.202;5.996;2023-04-08T03:16:35;2.40;99.90
20416;DHT22;10367;52.202;5.996;2023-04-08T03:19:05;2.20;99.90
20416;DHT22;10367;52.202;5.996;2023-04-08T03:21:37;2.20;99.90
20416;DHT22;10367;52.202;5.996;2023-04-08T03:24:06;2.20;99.90
20416;DHT22;10367;52.202;5.996;2023-04-08T03:26:38;2.20;99.90
20416;DHT22;10367;52.202;5.996;2023-04-08T03:29:06;2.20;99.90
20416;DHT22;10367;52.202;5.996;2023-04-08T03:31:36;2.20;99.90
20416;DHT22;10367;52.202;5.996;2023-04-08T03:34:06;2.10;99.90
20416;DHT22;10367;52.202;5.996;2023-04-08T03:36:38;2.10;99.90
20416;DHT22;10367;52.202;5.996;2023-04-08T03:39:06;2.10;99.90
20416;DHT22;10367;52.202;5.996;2023-04-08T03:41:36;2.00;99.90
20416;DHT22;10367;52.202;5.996;2023-04-08T03:44:05;2.00;99.90
20416;DHT22;10367;52.202;5.996;2023-04-08T03:46:34;2.00;99.90
20416;DHT22;10367;52.202;5.996;2023-04-08T03:49:03;1.90;99.90
20416;DHT22;10367;52.202;5.996;2023-04-08T03:51:33;2.00;99.90
20416;DHT22;10367;52.202;5.996;2023-04-08T03:54:02;2.00;99.90
20416;DHT22;10367;52.202;5.996;2023-04-08T03:56:32;1.90;99.90
20416;DHT22;10367;52.202;5.996;2023-04-08T03:59:00;1.90;99.90
20416;DHT22;10367;52.202;5.996;2023-04-08T04:01:29;1.80;99.90
20416;DHT22;10367;52.202;5.996;2023-04-08T04:03:58;1.80;99.90
20416;DHT22;10367;52.202;5.996;2023-04-08T04:06:28;1.70;99.90
20416;DHT22;10367;52.202;5.996;2023-04-08T04:09:02;1.80;99.90
20416;DHT22;10367;52.202;5.996;2023-04-08T04:11:33;1.80;99.90
20416;DHT22;10367;52.202;5.996;2023-04-08T04:14:02;1.80;99.90
20416;DHT22;10367;52.202;5.996;2023-04-08T04:16:34;1.80;99.90
20416;DHT22;10367;52.202;5.996;2023-04-08T04:19:05;1.80;99.90
20416;DHT22;10367;52.202;5.996;2023-04-08T04:21:39;1.80;99.90
20416;DHT22;10367;52.202;5.996;2023-04-08T04:24:11;1.70;99.90
20416;DHT22;10367;52.202;5.996;2023-04-08T04:26:40;1.70;99.90
20416;DHT22;10367;52.202;5.996;2023-04-08T04:29:15;1.60;99.90
20416;DHT22;10367;52.202;5.996;2023-04-08T04:31:46;1.60;99.90
20416;DHT22;10367;52.202;5.996;2023-04-08T04:34:21;1.60;99.90
20416;DHT22;10367;52.202;5.996;2023-04-08T04:36:57;1.60;99.90
20416;DHT22;10367;52.202;5.996;2023-04-08T04:39:35;1.60;99.90
20416;DHT22;10367;52.202;5.996;2023-04-08T04:42:11;1.60;99.90
20416;DHT22;10367;52.202;5.996;2023-04-08T04:44:43;1.60;99.90
20416;DHT22;10367;52.202;5.996;2023-04-08T04:47:19;1.50;99.90
20416;DHT22;10367;52.202;5.996;2023-04-08T04:49:55;1.50;99.90
20416;DHT22;10367;52.202;5.996;2023-04-08T04:52:24;1.50;99.90
20416;DHT22;10367;52.202;5.996;2023-04-08T04:55:05;1.60;99.90
20416;DHT22;10367;52.202;5.996;2023-04-08T04:57:38;1.60;99.90
20416;DHT22;10367;52.202;5.996;2023-04-08T05:00:13;1.60;99.90
20416;DHT22;10367;52.202;5.996;2023-04-08T05:02:47;1.60;99.90
20416;DHT22;10367;52.202;5.996;2023-04-08T05:05:21;1.60;99.90
20416;DHT22;10367;52.202;5.996;2023-04-08T05:07:53;1.60;99.90
20416;DHT22;10367;52.202;5.996;2023-04-08T05:10:24;1.50;99.90
20416;DHT22;10367;52.202;5.996;2023-04-08T05:12:53;1.60;99.90
20416;DHT22;10367;52.202;5.996;2023-04-08T05:15:23;1.70;99.90
20416;DHT22;10367;52.202;5.996;2023-04-08T05:17:53;1.60;99.90
20416;DHT22;10367;52.202;5.996;2023-04-08T05:20:28;1.50;99.90
20416;DHT22;10367;52.202;5.996;2023-04-08T05:22:57;1.60;99.90
20416;DHT22;10367;52.202;5.996;2023-04-08T05:25:36;1.60;99.90
20416;DHT22;10367;52.202;5.996;2023-04-08T05:28:14;1.60;99.90
20416;DHT22;10367;52.202;5.996;2023-04-08T05:30:47;1.60;99.90
20416;DHT22;10367;52.202;5.996;2023-04-08T05:33:27;1.50;99.90
20416;DHT22;10367;52.202;5.996;2023-04-08T05:35:56;1.60;99.90
20416;DHT22;10367;52.202;5.996;2023-04-08T05:38:31;1.70;99.90
20416;DHT22;10367;52.202;5.996;2023-04-08T05:41:05;1.70;99.90
20416;DHT22;10367;52.202;5.996;2023-04-08T05:43:38;1.80;99.90
20416;DHT22;10367;52.202;5.996;2023-04-08T05:46:12;1.80;99.90
20416;DHT22;10367;52.202;5.996;2023-04-08T05:48:46;1.80;99.90
20416;DHT22;10367;52.202;5.996;2023-04-08T05:51:18;1.90;99.90
20416;DHT22;10367;52.202;5.996;2023-04-08T05:53:57;1.90;99.90
20416;DHT22;10367;52.202;5.996;2023-04-08T05:56:32;2.00;99.90
20416;DHT22;10367;52.202;5.996;2023-04-08T05:59:08;2.00;99.90
20416;DHT22;10367;52.202;5.996;2023-04-08T06:01:50;2.00;99.90
20416;DHT22;10367;52.202;5.996;2023-04-08T06:04:24;2.00;99.90
20416;DHT22;10367;52.202;5.996;2023-04-08T06:06:53;2.10;99.90
20416;DHT22;10367;52.202;5.996;2023-04-08T06:09:29;2.20;99.90
20416;DHT22;10367;52.202;5.996;2023-04-08T06:12:00;2.20;99.90
20416;DHT22;10367;52.202;5.996;2023-04-08T06:14:33;2.20;99.90
20416;DHT22;10367;52.202;5.996;2023-04-08T06:17:06;2.30;99.90
20416;DHT22;10367;52.202;5.996;2023-04-08T06:19:40;2.30;99.90
20416;DHT22;10367;52.202;5.996;2023-04-08T06:22:16;2.40;99.90
20416;DHT22;10367;52.202;5.996;2023-04-08T06:24:52;2.50;99.90
20416;DHT22;10367;52.202;5.996;2023-04-08T06:27:27;2.60;99.90
20416;DHT22;10367;52.202;5.996;2023-04-08T06:29:59;2.60;99.90
20416;DHT22;10367;52.202;5.996;2023-04-08T06:32:29;2.60;99.90
20416;DHT22;10367;52.202;5.996;2023-04-08T06:35:05;2.60;99.90
20416;DHT22;10367;52.202;5.996;2023-04-08T06:37:35;2.60;99.90
20416;DHT22;10367;52.202;5.996;2023-04-08T06:40:06;2.70;99.90
20416;DHT22;10367;52.202;5.996;2023-04-08T06:42:37;2.70;99.90
20416;DHT22;10367;52.202;5.996;2023-04-08T06:45:15;2.80;99.90
20416;DHT22;10367;52.202;5.996;2023-04-08T06:47:47;2.90;99.90
20416;DHT22;10367;52.202;5.996;2023-04-08T06:50:27;3.00;99.90
20416;DHT22;10367;52.202;5.996;2023-04-08T06:52:56;3.10;99.90
20416;DHT22;10367;52.202;5.996;2023-04-08T06:55:26;3.20;99.90
20416;DHT22;10367;52.202;5.996;2023-04-08T06:58:00;3.30;99.90
20416;DHT22;10367;52.202;5.996;2023-04-08T07:00:34;3.40;99.90
20416;DHT22;10367;52.202;5.996;2023-04-08T07:03:03;3.50;99.90
20416;DHT22;10367;52.202;5.996;2023-04-08T07:05:35;3.60;99.90
20416;DHT22;10367;52.202;5.996;2023-04-08T07:08:05;3.60;99.90
20416;DHT22;10367;52.202;5.996;2023-04-08T07:10:35;3.70;99.90
20416;DHT22;10367;52.202;5.996;2023-04-08T07:13:08;3.70;99.90
20416;DHT22;10367;52.202;5.996;2023-04-08T07:15:38;3.80;99.90
20416;DHT22;10367;52.202;5.996;2023-04-08T07:18:18;3.90;99.90
20416;DHT22;10367;52.202;5.996;2023-04-08T07:20:57;3.90;99.90
20416;DHT22;10367;52.202;5.996;2023-04-08T07:23:30;4.10;99.90
20416;DHT22;10367;52.202;5.996;2023-04-08T07:26:07;4.10;99.90
20416;DHT22;10367;52.202;5.996;2023-04-08T07:28:41;4.10;99.90
20416;DHT22;10367;52.202;5.996;2023-04-08T07:31:15;4.30;99.90
20416;DHT22;10367;52.202;5.996;2023-04-08T07:33:49;4.40;99.90
20416;DHT22;10367;52.202;5.996;2023-04-08T07:36:20;4.50;99.90
20416;DHT22;10367;52.202;5.996;2023-04-08T07:38:51;4.60;99.90
20416;DHT22;10367;52.202;5.996;2023-04-08T07:41:21;4.70;99.90
20416;DHT22;10367;52.202;5.996;2023-04-08T07:43:52;4.80;99.90
20416;DHT22;10367;52.202;5.996;2023-04-08T07:46:29;5.00;99.90
20416;DHT22;10367;52.202;5.996;2023-04-08T07:49:04;5.10;99.90
20416;DHT22;10367;52.202;5.996;2023-04-08T07:51:33;5.20;99.90
20416;DHT22;10367;52.202;5.996;2023-04-08T07:54:03;5.20;99.90
20416;DHT22;10367;52.202;5.996;2023-04-08T07:56:37;5.10;99.90
20416;DHT22;10367;52.202;5.996;2023-04-08T07:59:09;5.10;99.90
20416;DHT22;10367;52.202;5.996;2023-04-08T08:01:38;5.10;99.90
20416;DHT22;10367;52.202;5.996;2023-04-08T08:04:15;5.20;99.90
20416;DHT22;10367;52.202;5.996;2023-04-08T08:06:48;5.10;99.90
20416;DHT22;10367;52.202;5.996;2023-04-08T08:09:21;5.10;99.90
20416;DHT22;10367;52.202;5.996;2023-04-08T08:11:53;5.10;99.90
20416;DHT22;10367;52.202;5.996;2023-04-08T08:14:30;5.20;99.90
20416;DHT22;10367;52.202;5.996;2023-04-08T08:17:04;5.30;99.90
20416;DHT22;10367;52.202;5.996;2023-04-08T08:19:38;5.30;99.90
20416;DHT22;10367;52.202;5.996;2023-04-08T08:22:10;5.40;99.90
20416;DHT22;10367;52.202;5.996;2023-04-08T08:24:47;5.60;99.90
20416;DHT22;10367;52.202;5.996;2023-04-08T08:27:16;5.80;99.90
20416;DHT22;10367;52.202;5.996;2023-04-08T08:29:47;5.80;99.90
20416;DHT22;10367;52.202;5.996;2023-04-08T08:32:15;5.90;99.90
20416;DHT22;10367;52.202;5.996;2023-04-08T08:34:44;5.90;99.90
20416;DHT22;10367;52.202;5.996;2023-04-08T08:37:13;6.00;99.90
20416;DHT22;10367;52.202;5.996;2023-04-08T08:39:41;6.00;99.90
20416;DHT22;10367;52.202;5.996;2023-04-08T08:42:18;6.10;99.90
20416;DHT22;10367;52.202;5.996;2023-04-08T08:44:49;6.30;99.90
20416;DHT22;10367;52.202;5.996;2023-04-08T08:47:20;6.30;99.90
20416;DHT22;10367;52.202;5.996;2023-04-08T08:49:49;6.50;99.90
20416;DHT22;10367;52.202;5.996;2023-04-08T08:52:21;6.70;99.90
20416;DHT22;10367;52.202;5.996;2023-04-08T08:54:56;6.80;99.90
20416;DHT22;10367;52.202;5.996;2023-04-08T08:57:25;6.90;99.90
20416;DHT22;10367;52.202;5.996;2023-04-08T08:59:58;7.00;99.90
20416;DHT22;10367;52.202;5.996;2023-04-08T09:02:30;7.10;99.90
20416;DHT22;10367;52.202;5.996;2023-04-08T09:05:02;7.20;99.90
20416;DHT22;10367;52.202;5.996;2023-04-08T09:07:35;7.30;99.90
20416;DHT22;10367;52.202;5.996;2023-04-08T09:10:08;7.30;99.90
20416;DHT22;10367;52.202;5.996;2023-04-08T09:12:53;7.50;99.90
20416;DHT22;10367;52.202;5.996;2023-04-08T09:15:25;7.60;99.90
20416;DHT22;10367;52.202;5.996;2023-04-08T09:18:22;7.70;99.90
20416;DHT22;10367;52.202;5.996;2023-04-08T09:20:54;7.90;99.90
20416;DHT22;10367;52.202;5.996;2023-04-08T09:23:37;8.00;99.90
20416;DHT22;10367;52.202;5.996;2023-04-08T09:26:13;8.10;99.90
20416;DHT22;10367;52.202;5.996;2023-04-08T09:28:59;8.40;99.90
20416;DHT22;10367;52.202;5.996;2023-04-08T09:31:56;8.50;99.90
20416;DHT22;10367;52.202;5.996;2023-04-08T09:34:30;8.50;99.90
20416;DHT22;10367;52.202;5.996;2023-04-08T09:37:00;8.60;99.90
20416;DHT22;10367;52.202;5.996;2023-04-08T09:39:30;8.70;99.90
20416;DHT22;10367;52.202;5.996;2023-04-08T09:41:59;8.90;99.90
20416;DHT22;10367;52.202;5.996;2023-04-08T09:44:30;9.00;99.90
20416;DHT22;10367;52.202;5.996;2023-04-08T09:47:07;9.10;99.90
20416;DHT22;10367;52.202;5.996;2023-04-08T09:49:39;9.20;99.90
20416;DHT22;10367;52.202;5.996;2023-04-08T09:52:14;9.40;99.90
20416;DHT22;10367;52.202;5.996;2023-04-08T09:54:51;9.50;99.90
20416;DHT22;10367;52.202;5.996;2023-04-08T09:57:36;9.60;99.90
20416;DHT22;10367;52.202;5.996;2023-04-08T10:00:10;9.70;99.90
20416;DHT22;10367;52.202;5.996;2023-04-08T10:02:48;9.80;99.90
20416;DHT22;10367;52.202;5.996;2023-04-08T10:05:20;10.00;99.90
20416;DHT22;10367;52.202;5.996;2023-04-08T10:07:51;10.00;99.90
20416;DHT22;10367;52.202;5.996;2023-04-08T10:10:20;10.10;99.90
20416;DHT22;10367;52.202;5.996;2023-04-08T10:12:49;10.10;99.90
20416;DHT22;10367;52.202;5.996;2023-04-08T10:15:25;10.00;99.90
20416;DHT22;10367;52.202;5.996;2023-04-08T10:18:30;10.00;99.90
20416;DHT22;10367;52.202;5.996;2023-04-08T10:21:00;10.10;99.90
20416;DHT22;10367;52.202;5.996;2023-04-08T10:23:59;10.20;99.90
20416;DHT22;10367;52.202;5.996;2023-04-08T10:26:39;10.30;99.90
20416;DHT22;10367;52.202;5.996;2023-04-08T10:29:39;10.40;99.90
20416;DHT22;10367;52.202;5.996;2023-04-08T10:32:07;10.60;99.90
20416;DHT22;10367;52.202;5.996;2023-04-08T10:34:53;10.60;99.90
20416;DHT22;10367;52.202;5.996;2023-04-08T10:37:29;10.80;99.90
20416;DHT22;10367;52.202;5.996;2023-04-08T10:39:58;10.90;99.90
20416;DHT22;10367;52.202;5.996;2023-04-08T10:42:27;11.10;99.90
20416;DHT22;10367;52.202;5.996;2023-04-08T10:45:02;11.50;99.90
20416;DHT22;10367;52.202;5.996;2023-04-08T10:47:32;11.70;99.90
20416;DHT22;10367;52.202;5.996;2023-04-08T10:50:11;11.80;99.90
20416;DHT22;10367;52.202;5.996;2023-04-08T10:52:47;11.90;99.90
20416;DHT22;10367;52.202;5.996;2023-04-08T10:55:21;12.00;99.90
20416;DHT22;10367;52.202;5.996;2023-04-08T10:57:51;12.10;99.90
20416;DHT22;10367;52.202;5.996;2023-04-08T11:00:32;12.00;99.90
20416;DHT22;10367;52.202;5.996;2023-04-08T11:03:02;12.20;99.90
20416;DHT22;10367;52.202;5.996;2023-04-08T11:05:32;12.00;99.90
20416;DHT22;10367;52.202;5.996;2023-04-08T11:08:04;12.00;99.90
20416;DHT22;10367;52.202;5.996;2023-04-08T11:10:36;11.90;99.90
20416;DHT22;10367;52.202;5.996;2023-04-08T11:13:08;12.00;99.90
20416;DHT22;10367;52.202;5.996;2023-04-08T11:15:38;12.30;99.90
20416;DHT22;10367;52.202;5.996;2023-04-08T11:18:07;12.50;99.90
20416;DHT22;10367;52.202;5.996;2023-04-08T11:20:37;12.40;99.90
20416;DHT22;10367;52.202;5.996;2023-04-08T11:23:12;12.40;99.90
20416;DHT22;10367;52.202;5.996;2023-04-08T11:25:45;12.40;99.90
20416;DHT22;10367;52.202;5.996;2023-04-08T11:28:14;12.50;99.90
20416;DHT22;10367;52.202;5.996;2023-04-08T11:30:45;12.80;99.90
20416;DHT22;10367;52.202;5.996;2023-04-08T11:33:16;12.90;99.90
20416;DHT22;10367;52.202;5.996;2023-04-08T11:35:50;12.90;99.90
20416;DHT22;10367;52.202;5.996;2023-04-08T11:38:22;12.90;99.90
20416;DHT22;10367;52.202;5.996;2023-04-08T11:40:54;12.70;99.90
20416;DHT22;10367;52.202;5.996;2023-04-08T11:43:23;12.60;99.90
20416;DHT22;10367;52.202;5.996;2023-04-08T11:45:52;12.50;99.90
20416;DHT22;10367;52.202;5.996;2023-04-08T11:48:21;12.50;99.90
20416;DHT22;10367;52.202;5.996;2023-04-08T11:51:03;12.50;99.90
20416;DHT22;10367;52.202;5.996;2023-04-08T11:53:32;12.40;99.90
20416;DHT22;10367;52.202;5.996;2023-04-08T11:56:15;12.40;99.90
20416;DHT22;10367;52.202;5.996;2023-04-08T11:58:44;12.40;99.90
20416;DHT22;10367;52.202;5.996;2023-04-08T12:01:14;12.40;99.90
20416;DHT22;10367;52.202;5.996;2023-04-08T12:03:56;12.30;99.90
20416;DHT22;10367;52.202;5.996;2023-04-08T12:06:28;12.20;99.90
20416;DHT22;10367;52.202;5.996;2023-04-08T12:08:58;12.30;99.90
20416;DHT22;10367;52.202;5.996;2023-04-08T12:11:27;12.40;99.90
20416;DHT22;10367;52.202;5.996;2023-04-08T12:13:56;12.60;99.90
20416;DHT22;10367;52.202;5.996;2023-04-08T12:16:42;12.80;99.90
20416;DHT22;10367;52.202;5.996;2023-04-08T12:19:15;12.80;99.90
20416;DHT22;10367;52.202;5.996;2023-04-08T12:21:45;13.00;99.90
20416;DHT22;10367;52.202;5.996;2023-04-08T12:24:14;13.00;99.90
20416;DHT22;10367;52.202;5.996;2023-04-08T12:26:43;12.90;99.90
20416;DHT22;10367;52.202;5.996;2023-04-08T12:29:15;12.90;99.90
20416;DHT22;10367;52.202;5.996;2023-04-08T12:31:47;12.80;99.90
20416;DHT22;10367;52.202;5.996;2023-04-08T12:34:25;12.60;99.90
20416;DHT22;10367;52.202;5.996;2023-04-08T12:36:59;12.70;99.90
20416;DHT22;10367;52.202;5.996;2023-04-08T12:39:30;12.60;99.90
20416;DHT22;10367;52.202;5.996;2023-04-08T12:42:01;12.60;99.90
20416;DHT22;10367;52.202;5.996;2023-04-08T12:44:44;12.60;99.90
20416;DHT22;10367;52.202;5.996;2023-04-08T12:47:15;12.70;99.90
20416;DHT22;10367;52.202;5.996;2023-04-08T12:49:53;12.80;99.90
20416;DHT22;10367;52.202;5.996;2023-04-08T12:52:34;12.80;99.90
20416;DHT22;10367;52.202;5.996;2023-04-08T12:55:09;12.90;99.90
20416;DHT22;10367;52.202;5.996;2023-04-08T12:57:38;13.10;99.90
20416;DHT22;10367;52.202;5.996;2023-04-08T13:00:11;13.20;99.90
20416;DHT22;10367;52.202;5.996;2023-04-08T13:02:41;13.10;99.90
20416;DHT22;10367;52.202;5.996;2023-04-08T13:05:14;13.10;99.90
20416;DHT22;10367;52.202;5.996;2023-04-08T13:08:07;13.10;99.90
20416;DHT22;10367;52.202;5.996;2023-04-08T13:10:37;13.00;99.90
20416;DHT22;10367;52.202;5.996;2023-04-08T13:13:09;12.90;99.90
20416;DHT22;10367;52.202;5.996;2023-04-08T13:15:41;12.90;99.90
20416;DHT22;10367;52.202;5.996;2023-04-08T13:18:11;13.20;99.90
20416;DHT22;10367;52.202;5.996;2023-04-08T13:20:40;13.30;99.90
20416;DHT22;10367;52.202;5.996;2023-04-08T13:23:14;13.40;99.90
20416;DHT22;10367;52.202;5.996;2023-04-08T13:26:06;13.50;99.90
20416;DHT22;10367;52.202;5.996;2023-04-08T13:28:40;13.80;99.90
20416;DHT22;10367;52.202;5.996;2023-04-08T13:31:18;14.00;99.90
20416;DHT22;10367;52.202;5.996;2023-04-08T13:33:55;14.00;99.90
20416;DHT22;10367;52.202;5.996;2023-04-08T13:36:26;14.20;99.90
20416;DHT22;10367;52.202;5.996;2023-04-08T13:39:04;14.50;99.90
20416;DHT22;10367;52.202;5.996;2023-04-08T13:41:34;14.60;99.90
20416;DHT22;10367;52.202;5.996;2023-04-08T13:44:03;14.60;99.90
20416;DHT22;10367;52.202;5.996;2023-04-08T13:46:33;14.60;99.90
20416;DHT22;10367;52.202;5.996;2023-04-08T13:49:04;14.40;99.90
20416;DHT22;10367;52.202;5.996;2023-04-08T13:51:39;14.20;99.90
20416;DHT22;10367;52.202;5.996;2023-04-08T13:54:12;13.90;99.90
20416;DHT22;10367;52.202;5.996;2023-04-08T13:56:41;13.80;99.90
20416;DHT22;10367;52.202;5.996;2023-04-08T13:59:13;13.90;99.90
20416;DHT22;10367;52.202;5.996;2023-04-08T14:01:42;13.90;99.90
20416;DHT22;10367;52.202;5.996;2023-04-08T14:04:14;13.80;99.90
20416;DHT22;10367;52.202;5.996;2023-04-08T14:06:43;13.60;99.90
20416;DHT22;10367;52.202;5.996;2023-04-08T14:09:23;13.50;99.90
20416;DHT22;10367;52.202;5.996;2023-04-08T14:11:57;13.80;99.90
20416;DHT22;10367;52.202;5.996;2023-04-08T14:14:28;14.20;99.90
20416;DHT22;10367;52.202;5.996;2023-04-08T14:16:57;14.40;99.90
20416;DHT22;10367;52.202;5.996;2023-04-08T14:19:30;14.50;99.90
20416;DHT22;10367;52.202;5.996;2023-04-08T14:22:00;14.60;99.90
20416;DHT22;10367;52.202;5.996;2023-04-08T14:24:30;14.40;99.90
20416;DHT22;10367;52.202;5.996;2023-04-08T14:27:01;14.20;99.90
20416;DHT22;10367;52.202;5.996;2023-04-08T14:29:31;14.20;99.90
20416;DHT22;10367;52.202;5.996;2023-04-08T14:32:00;14.30;99.90
20416;DHT22;10367;52.202;5.996;2023-04-08T14:34:28;14.30;99.90
20416;DHT22;10367;52.202;5.996;2023-04-08T14:37:01;14.60;99.90
20416;DHT22;10367;52.202;5.996;2023-04-08T14:39:31;14.80;99.90
20416;DHT22;10367;52.202;5.996;2023-04-08T14:42:00;14.90;99.90
20416;DHT22;10367;52.202;5.996;2023-04-08T14:44:29;15.10;99.90
20416;DHT22;10367;52.202;5.996;2023-04-08T14:46:58;15.10;99.90
20416;DHT22;10367;52.202;5.996;2023-04-08T14:49:30;15.10;99.90
20416;DHT22;10367;52.202;5.996;2023-04-08T14:52:03;15.10;99.90
20416;DHT22;10367;52.202;5.996;2023-04-08T14:54:39;15.30;99.90
20416;DHT22;10367;52.202;5.996;2023-04-08T14:57:09;15.20;99.90
20416;DHT22;10367;52.202;5.996;2023-04-08T14:59:39;15.20;99.90
20416;DHT22;10367;52.202;5.996;2023-04-08T15:02:08;15.30;99.90
20416;DHT22;10367;52.202;5.996;2023-04-08T15:04:39;15.10;99.90
20416;DHT22;10367;52.202;5.996;2023-04-08T15:07:07;15.20;99.90
20416;DHT22;10367;52.202;5.996;2023-04-08T15:09:36;15.70;99.90
20416;DHT22;10367;52.202;5.996;2023-04-08T15:12:09;15.60;99.90
20416;DHT22;10367;52.202;5.996;2023-04-08T15:14:40;15.30;99.90
20416;DHT22;10367;52.202;5.996;2023-04-08T15:17:09;15.10;99.90
20416;DHT22;10367;52.202;5.996;2023-04-08T15:19:38;14.90;99.90
20416;DHT22;10367;52.202;5.996;2023-04-08T15:22:06;14.90;99.90
20416;DHT22;10367;52.202;5.996;2023-04-08T15:24:35;15.00;99.90
20416;DHT22;10367;52.202;5.996;2023-04-08T15:27:05;14.90;99.90
20416;DHT22;10367;52.202;5.996;2023-04-08T15:29:34;14.70;99.90
20416;DHT22;10367;52.202;5.996;2023-04-08T15:32:03;14.50;99.90
20416;DHT22;10367;52.202;5.996;2023-04-08T15:34:32;14.40;99.90
20416;DHT22;10367;52.202;5.996;2023-04-08T15:37:01;14.30;99.90
20416;DHT22;10367;52.202;5.996;2023-04-08T15:39:29;14.20;99.90
20416;DHT22;10367;52.202;5.996;2023-04-08T15:41:58;14.00;99.90
20416;DHT22;10367;52.202;5.996;2023-04-08T15:44:31;14.00;99.90
20416;DHT22;10367;52.202;5.996;2023-04-08T15:47:00;13.90;99.90
20416;DHT22;10367;52.202;5.996;2023-04-08T15:49:29;13.70;99.90
20416;DHT22;10367;52.202;5.996;2023-04-08T15:51:57;13.60;99.90
20416;DHT22;10367;52.202;5.996;2023-04-08T15:54:26;13.70;99.90
20416;DHT22;10367;52.202;5.996;2023-04-08T15:56:57;13.70;99.90
20416;DHT22;10367;52.202;5.996;2023-04-08T15:59:27;13.70;99.90
20416;DHT22;10367;52.202;5.996;2023-04-08T16:01:58;13.60;99.90
20416;DHT22;10367;52.202;5.996;2023-04-08T16:04:27;13.60;99.90
20416;DHT22;10367;52.202;5.996;2023-04-08T16:06:56;13.60;99.90
20416;DHT22;10367;52.202;5.996;2023-04-08T16:09:24;13.60;99.90
20416;DHT22;10367;52.202;5.996;2023-04-08T16:11:53;13.60;99.90
20416;DHT22;10367;52.202;5.996;2023-04-08T16:14:22;13.60;99.90
20416;DHT22;10367;52.202;5.996;2023-04-08T16:16:50;13.50;99.90